sensor_id;sensor_type;location;lat;lon;timestamp;pressure;altitude;pressure_sealevel;temperature;humidity
36600;BME280;35385;55.668;37.508;2023-05-10T00:00:59;100240.03;;;9.81;70.29
36600;BME280;35385;55.668;37.508;2023-05-10T00:02:00;100285.91;;;10.12;69.56
36600;BME280;35385;55.668;37.508;2023-05-10T00:03:00;100288.25;;;10.16;69.51
36600;BME280;35385;55.668;37.508;2023-05-10T00:04:01;100282.94;;;10.16;69.12
36600;BME280;35385;55.668;37.508;2023-05-10T00:05:02;100291.72;;;10.18;67.99
36600;BME280;35385;55.668;37.508;2023-05-10T00:06:05;100286.44;;;10.17;67.41
36600;BME280;35385;55.668;37.508;2023-05-10T00:07:05;100275.34;;;10.10;69.80
36600;BME280;35385;55.668;37.508;2023-05-10T00:08:07;100288.09;;;10.19;69.23
36600;BME280;35385;55.668;37.508;2023-05-10T00:09:07;100286.38;;;10.18;68.97
36600;BME280;35385;55.668;37.508;2023-05-10T00:10:08;100281.69;;;10.22;68.04
36600;BME280;35385;55.668;37.508;2023-05-10T00:11:09;100271.84;;;10.10;68.70
36600;BME280;35385;55.668;37.508;2023-05-10T00:12:09;100281.44;;;10.12;69.74
36600;BME280;35385;55.668;37.508;2023-05-10T00:13:10;100275.34;;;10.10;69.87
36600;BME280;35385;55.668;37.508;2023-05-10T00:14:11;100276.09;;;10.12;68.87
36600;BME280;35385;55.668;37.508;2023-05-10T00:15:11;100283.59;;;10.07;68.28
36600;BME280;35385;55.668;37.508;2023-05-10T00:16:13;100264.06;;;9.94;70.49
36600;BME280;35385;55.668;37.508;2023-05-10T00:17:14;100283.81;;;10.04;71.83
36600;BME280;35385;55.668;37.508;2023-05-10T00:18:15;100278.78;;;10.00;72.21
36600;BME280;35385;55.668;37.508;2023-05-10T00:19:15;100278.88;;;9.98;72.52
36600;BME280;35385;55.668;37.508;2023-05-10T00:20:16;100278.13;;;9.96;73.77
36600;BME280;35385;55.668;37.508;2023-05-10T00:21:16;100271.44;;;9.90;77.78
36600;BME280;35385;55.668;37.508;2023-05-10T00:22:17;100278.38;;;9.93;76.31
36600;BME280;35385;55.668;37.508;2023-05-10T00:23:17;100277.50;;;9.92;75.66
36600;BME280;35385;55.668;37.508;2023-05-10T00:24:18;100271.22;;;9.93;76.12
36600;BME280;35385;55.668;37.508;2023-05-10T00:25:19;100261.72;;;9.89;77.87
36600;BME280;35385;55.668;37.508;2023-05-10T00:26:21;100279.72;;;9.99;80.46
36600;BME280;35385;55.668;37.508;2023-05-10T00:27:22;100271.84;;;9.97;81.49
36600;BME280;35385;55.668;37.508;2023-05-10T00:28:23;100278.47;;;10.04;82.60
36600;BME280;35385;55.668;37.508;2023-05-10T00:29:23;100278.00;;;10.10;81.45
36600;BME280;35385;55.668;37.508;2023-05-10T00:30:24;100270.34;;;10.06;81.80
36600;BME280;35385;55.668;37.508;2023-05-10T00:31:25;100283.34;;;10.10;82.75
36600;BME280;35385;55.668;37.508;2023-05-10T00:32:25;100278.16;;;10.09;83.06
36600;BME280;35385;55.668;37.508;2023-05-10T00:33:26;100257.13;;;9.91;83.02
36600;BME280;35385;55.668;37.508;2023-05-10T00:34:27;100279.53;;;10.02;82.07
36600;BME280;35385;55.668;37.508;2023-05-10T00:35:27;100279.31;;;10.05;82.64
36600;BME280;35385;55.668;37.508;2023-05-10T00:36:28;100276.34;;;10.09;82.79
36600;BME280;35385;55.668;37.508;2023-05-10T00:37:28;100236.31;;;9.84;82.70
36600;BME280;35385;55.668;37.508;2023-05-10T00:38:29;100280.81;;;10.09;82.54
36600;BME280;35385;55.668;37.508;2023-05-10T00:39:30;100275.78;;;10.04;80.00
36600;BME280;35385;55.668;37.508;2023-05-10T00:40:30;100289.22;;;10.15;78.47
36600;BME280;35385;55.668;37.508;2023-05-10T00:41:31;100290.41;;;10.11;78.91
36600;BME280;35385;55.668;37.508;2023-05-10T00:42:34;100193.94;;;9.67;78.32
36600;BME280;35385;55.668;37.508;2023-05-10T00:43:35;100284.75;;;10.16;77.53
36600;BME280;35385;55.668;37.508;2023-05-10T00:44:36;100282.28;;;10.13;76.30
36600;BME280;35385;55.668;37.508;2023-05-10T00:45:37;100268.53;;;10.06;75.16
36600;BME280;35385;55.668;37.508;2023-05-10T00:46:39;100282.94;;;10.16;77.25
36600;BME280;35385;55.668;37.508;2023-05-10T00:47:40;100288.47;;;10.13;80.49
36600;BME280;35385;55.668;37.508;2023-05-10T00:48:42;100279.59;;;10.13;81.40
36600;BME280;35385;55.668;37.508;2023-05-10T00:49:43;100285.06;;;10.11;82.37
36600;BME280;35385;55.668;37.508;2023-05-10T00:50:45;100276.56;;;9.93;82.58
36600;BME280;35385;55.668;37.508;2023-05-10T00:51:46;100282.50;;;9.97;80.94
36600;BME280;35385;55.668;37.508;2023-05-10T00:52:46;100279.13;;;9.95;81.91
36600;BME280;35385;55.668;37.508;2023-05-10T00:53:48;100286.13;;;9.96;83.59
36600;BME280;35385;55.668;37.508;2023-05-10T00:54:51;100232.59;;;9.61;81.30
36600;BME280;35385;55.668;37.508;2023-05-10T00:55:52;100192.25;;;9.40;78.61
36600;BME280;35385;55.668;37.508;2023-05-10T00:56:53;100284.66;;;9.92;78.17
36600;BME280;35385;55.668;37.508;2023-05-10T00:57:54;100275.25;;;9.86;77.08
36600;BME280;35385;55.668;37.508;2023-05-10T00:58:55;100280.28;;;9.91;79.55
36600;BME280;35385;55.668;37.508;2023-05-10T00:59:56;100285.84;;;9.88;79.31
36600;BME280;35385;55.668;37.508;2023-05-10T01:00:58;100286.03;;;9.85;81.74
36600;BME280;35385;55.668;37.508;2023-05-10T01:01:59;100281.91;;;9.81;82.86
36600;BME280;35385;55.668;37.508;2023-05-10T01:02:59;100225.53;;;9.47;79.60
36600;BME280;35385;55.668;37.508;2023-05-10T01:04:00;100238.34;;;9.55;71.26
36600;BME280;35385;55.668;37.508;2023-05-10T01:05:02;100268.75;;;9.78;77.35
36600;BME280;35385;55.668;37.508;2023-05-10T01:06:06;100273.75;;;9.82;82.88
36600;BME280;35385;55.668;37.508;2023-05-10T01:07:07;100272.91;;;9.82;83.51
36600;BME280;35385;55.668;37.508;2023-05-10T01:08:08;100240.03;;;9.56;68.70
36600;BME280;35385;55.668;37.508;2023-05-10T01:09:09;100272.28;;;9.78;70.16
36600;BME280;35385;55.668;37.508;2023-05-10T01:10:11;100266.94;;;9.78;78.41
36600;BME280;35385;55.668;37.508;2023-05-10T01:11:12;100265.03;;;9.80;80.20
36600;BME280;35385;55.668;37.508;2023-05-10T01:12:13;100282.50;;;9.84;82.23
36600;BME280;35385;55.668;37.508;2023-05-10T01:13:23;100232.91;;;9.56;85.45
36600;BME280;35385;55.668;37.508;2023-05-10T01:14:30;100283.38;;;9.85;86.30
36600;BME280;35385;55.668;37.508;2023-05-10T01:15:31;100279.75;;;9.86;84.02
36600;BME280;35385;55.668;37.508;2023-05-10T01:16:36;100274.09;;;9.90;81.59
36600;BME280;35385;55.668;37.508;2023-05-10T01:17:39;100238.34;;;9.68;82.53
36600;BME280;35385;55.668;37.508;2023-05-10T01:18:41;100273.25;;;9.90;82.69
36600;BME280;35385;55.668;37.508;2023-05-10T01:19:42;100269.38;;;9.81;84.93
36600;BME280;35385;55.668;37.508;2023-05-10T01:20:47;100276.22;;;9.85;81.81
36600;BME280;35385;55.668;37.508;2023-05-10T01:22:21;100269.81;;;9.88;82.24
36600;BME280;35385;55.668;37.508;2023-05-10T01:34:16;100279.63;;;9.87;76.82
36600;BME280;35385;55.668;37.508;2023-05-10T01:35:47;100277.16;;;9.97;76.57
36600;BME280;35385;55.668;37.508;2023-05-10T01:36:58;100275.25;;;9.99;79.69
36600;BME280;35385;55.668;37.508;2023-05-10T01:38:16;100273.34;;;10.01;80.91
36600;BME280;35385;55.668;37.508;2023-05-10T01:39:25;100276.97;;;10.00;81.47
36600;BME280;35385;55.668;37.508;2023-05-10T01:40:35;100276.56;;;9.93;80.72
36600;BME280;35385;55.668;37.508;2023-05-10T01:43:12;100275.91;;;9.90;80.58
36600;BME280;35385;55.668;37.508;2023-05-10T01:45:39;100267.34;;;9.98;80.85
36600;BME280;35385;55.668;37.508;2023-05-10T01:46:41;100267.25;;;9.99;79.95
36600;BME280;35385;55.668;37.508;2023-05-10T01:47:44;100207.53;;;9.64;77.99
36600;BME280;35385;55.668;37.508;2023-05-10T01:48:48;100238.47;;;9.79;77.08
36600;BME280;35385;55.668;37.508;2023-05-10T01:49:56;100279.53;;;10.02;76.01
36600;BME280;35385;55.668;37.508;2023-05-10T01:51:02;100264.16;;;9.92;76.55
36600;BME280;35385;55.668;37.508;2023-05-10T01:52:08;100267.91;;;9.90;75.19
36600;BME280;35385;55.668;37.508;2023-05-10T01:53:12;100268.66;;;9.92;74.31
36600;BME280;35385;55.668;37.508;2023-05-10T01:54:14;100263.84;;;9.84;76.75
36600;BME280;35385;55.668;37.508;2023-05-10T01:55:20;100226.09;;;9.65;76.30
36600;BME280;35385;55.668;37.508;2023-05-10T01:56:24;100277.41;;;9.94;76.54
36600;BME280;35385;55.668;37.508;2023-05-10T01:57:29;100269.25;;;9.96;76.95
36600;BME280;35385;55.668;37.508;2023-05-10T01:58:33;100270.97;;;9.97;78.11
36600;BME280;35385;55.668;37.508;2023-05-10T01:59:37;100268.84;;;10.02;79.22
36600;BME280;35385;55.668;37.508;2023-05-10T02:00:44;100270.56;;;10.03;78.31
36600;BME280;35385;55.668;37.508;2023-05-10T02:01:47;100262.88;;;9.98;79.23
36600;BME280;35385;55.668;37.508;2023-05-10T02:02:49;100263.50;;;10.02;77.77
36600;BME280;35385;55.668;37.508;2023-05-10T02:03:51;100255.31;;;9.92;78.18
36600;BME280;35385;55.668;37.508;2023-05-10T02:04:53;100257.03;;;9.93;78.24
36600;BME280;35385;55.668;37.508;2023-05-10T02:05:56;100263.31;;;9.92;76.85
36600;BME280;35385;55.668;37.508;2023-05-10T02:06:57;100268.31;;;9.97;76.45
36600;BME280;35385;55.668;37.508;2023-05-10T02:07:59;100259.06;;;9.77;75.66
36600;BME280;35385;55.668;37.508;2023-05-10T02:09:02;100224.28;;;9.66;76.17
36600;BME280;35385;55.668;37.508;2023-05-10T02:10:07;100273.34;;;10.01;75.77
36600;BME280;35385;55.668;37.508;2023-05-10T02:11:12;100217.22;;;9.77;76.56
36600;BME280;35385;55.668;37.508;2023-05-10T02:12:13;100263.94;;;10.08;77.90
36600;BME280;35385;55.668;37.508;2023-05-10T02:13:17;100275.34;;;10.10;78.85
36600;BME280;35385;55.668;37.508;2023-05-10T02:14:18;100265.88;;;10.06;78.56
36600;BME280;35385;55.668;37.508;2023-05-10T02:15:22;100264.16;;;10.05;79.57
36600;BME280;35385;55.668;37.508;2023-05-10T02:16:24;100276.09;;;10.12;79.27
36600;BME280;35385;55.668;37.508;2023-05-10T02:17:27;100271.94;;;10.08;77.22
36600;BME280;35385;55.668;37.508;2023-05-10T02:18:29;100258.06;;;10.03;76.65
36600;BME280;35385;55.668;37.508;2023-05-10T02:19:32;100264.56;;;9.99;76.81
36600;BME280;35385;55.668;37.508;2023-05-10T02:20:34;100265.13;;;10.04;77.04
36600;BME280;35385;55.668;37.508;2023-05-10T02:21:36;100276.53;;;10.06;78.66
36600;BME280;35385;55.668;37.508;2023-05-10T02:22:39;100276.09;;;10.12;79.12
36600;BME280;35385;55.668;37.508;2023-05-10T02:23:40;100274.81;;;10.18;77.33
36600;BME280;35385;55.668;37.508;2023-05-10T02:24:43;100255.47;;;10.14;74.82
36600;BME280;35385;55.668;37.508;2023-05-10T02:25:47;100272.06;;;10.19;70.74
36600;BME280;35385;55.668;37.508;2023-05-10T02:26:49;100257.75;;;10.20;70.96
36600;BME280;35385;55.668;37.508;2023-05-10T02:27:54;100270.53;;;10.15;72.50
36600;BME280;35385;55.668;37.508;2023-05-10T02:28:56;100259.47;;;10.09;74.15
36600;BME280;35385;55.668;37.508;2023-05-10T02:29:57;100257.00;;;10.06;76.34
36600;BME280;35385;55.668;37.508;2023-05-10T02:30:58;100228.28;;;9.84;74.49
36600;BME280;35385;55.668;37.508;2023-05-10T02:32:00;100262.44;;;10.04;74.33
36600;BME280;35385;55.668;37.508;2023-05-10T02:33:03;100262.44;;;10.04;66.46
36600;BME280;35385;55.668;37.508;2023-05-10T02:34:05;100260.31;;;10.09;67.05
36600;BME280;35385;55.668;37.508;2023-05-10T02:35:08;100261.78;;;10.13;67.53
36600;BME280;35385;55.668;37.508;2023-05-10T02:36:10;100243.00;;;10.02;63.42
36600;BME280;35385;55.668;37.508;2023-05-10T02:37:14;100260.59;;;10.17;61.60
36600;BME280;35385;55.668;37.508;2023-05-10T02:38:16;100246.72;;;10.12;60.98
36600;BME280;35385;55.668;37.508;2023-05-10T02:39:19;100197.66;;;9.89;60.81
36600;BME280;35385;55.668;37.508;2023-05-10T02:40:22;100255.38;;;10.28;62.13
36600;BME280;35385;55.668;37.508;2023-05-10T02:41:24;100251.97;;;10.26;69.02
36600;BME280;35385;55.668;37.508;2023-05-10T02:42:27;100247.59;;;10.25;65.89
36600;BME280;35385;55.668;37.508;2023-05-10T02:43:30;100257.09;;;10.30;62.77
36600;BME280;35385;55.668;37.508;2023-05-10T02:44:32;100256.66;;;10.36;62.42
36600;BME280;35385;55.668;37.508;2023-05-10T02:45:35;100250.78;;;10.31;61.26
36600;BME280;35385;55.668;37.508;2023-05-10T02:46:36;100255.22;;;10.43;60.01
36600;BME280;35385;55.668;37.508;2023-05-10T02:47:38;100251.31;;;10.36;57.96
36600;BME280;35385;55.668;37.508;2023-05-10T02:48:38;100252.28;;;10.35;62.24
36600;BME280;35385;55.668;37.508;2023-05-10T02:49:39;100265.28;;;10.39;63.36
36600;BME280;35385;55.668;37.508;2023-05-10T02:50:43;100254.09;;;10.34;60.12
36600;BME280;35385;55.668;37.508;2023-05-10T02:51:50;100254.19;;;10.33;58.77
36600;BME280;35385;55.668;37.508;2023-05-10T02:52:55;100257.84;;;10.32;56.98
36600;BME280;35385;55.668;37.508;2023-05-10T02:53:57;100255.16;;;10.32;57.02
36600;BME280;35385;55.668;37.508;2023-05-10T02:55:02;100256.19;;;10.42;63.48
36600;BME280;35385;55.668;37.508;2023-05-10T02:56:14;100218.22;;;10.25;63.78
36600;BME280;35385;55.668;37.508;2023-05-10T02:57:17;100210.94;;;10.15;60.88
36600;BME280;35385;55.668;37.508;2023-05-10T02:58:21;100258.13;;;10.40;58.14
36600;BME280;35385;55.668;37.508;2023-05-10T02:59:22;100168.09;;;9.92;58.16
36600;BME280;35385;55.668;37.508;2023-05-10T03:00:24;100252.97;;;10.49;58.31
36600;BME280;35385;55.668;37.508;2023-05-10T03:01:25;100208.75;;;10.21;65.52
36600;BME280;35385;55.668;37.508;2023-05-10T03:02:26;100259.28;;;10.48;63.02
36600;BME280;35385;55.668;37.508;2023-05-10T03:03:27;100255.75;;;10.48;58.97
36600;BME280;35385;55.668;37.508;2023-05-10T03:04:27;100255.75;;;10.48;57.61
36600;BME280;35385;55.668;37.508;2023-05-10T03:05:28;100247.44;;;10.40;56.74
36600;BME280;35385;55.668;37.508;2023-05-10T03:06:28;100250.22;;;10.51;56.83
36600;BME280;35385;55.668;37.508;2023-05-10T03:07:29;100234.63;;;10.45;55.78
36600;BME280;35385;55.668;37.508;2023-05-10T03:08:30;100244.00;;;10.50;56.36
36600;BME280;35385;55.668;37.508;2023-05-10T03:09:32;100251.28;;;10.48;56.45
36600;BME280;35385;55.668;37.508;2023-05-10T03:10:38;100252.34;;;10.46;56.43
36600;BME280;35385;55.668;37.508;2023-05-10T03:16:55;100255.34;;;10.41;55.64
36600;BME280;35385;55.668;37.508;2023-05-10T03:19:30;100207.13;;;10.06;56.08
36600;BME280;35385;55.668;37.508;2023-05-10T03:20:41;100189.22;;;9.83;55.86
36600;BME280;35385;55.668;37.508;2023-05-10T03:21:47;100246.63;;;10.26;56.37
36600;BME280;35385;55.668;37.508;2023-05-10T03:23:13;100249.41;;;10.38;56.02
36600;BME280;35385;55.668;37.508;2023-05-10T03:24:25;100242.44;;;10.35;55.85
36600;BME280;35385;55.668;37.508;2023-05-10T03:25:28;100255.81;;;10.35;54.84
36600;BME280;35385;55.668;37.508;2023-05-10T03:26:30;100246.41;;;10.30;55.57
36600;BME280;35385;55.668;37.508;2023-05-10T03:27:31;100240.84;;;10.33;56.41
36600;BME280;35385;55.668;37.508;2023-05-10T03:28:34;100247.75;;;10.48;56.23
36600;BME280;35385;55.668;37.508;2023-05-10T03:29:36;100252.56;;;10.43;56.10
36600;BME280;35385;55.668;37.508;2023-05-10T03:30:38;100255.34;;;10.41;55.76
36600;BME280;35385;55.668;37.508;2023-05-10T03:31:39;100215.03;;;10.20;55.33
36600;BME280;35385;55.668;37.508;2023-05-10T03:32:40;100242.34;;;10.37;55.57
36600;BME280;35385;55.668;37.508;2023-05-10T03:33:59;100239.94;;;10.45;56.42
36600;BME280;35385;55.668;37.508;2023-05-10T03:35:00;100248.72;;;10.47;56.15
36600;BME280;35385;55.668;37.508;2023-05-10T03:36:02;100256.03;;;10.56;55.13
36600;BME280;35385;55.668;37.508;2023-05-10T03:37:03;100252.50;;;10.55;55.11
36600;BME280;35385;55.668;37.508;2023-05-10T03:38:03;100252.34;;;10.46;54.87
36600;BME280;35385;55.668;37.508;2023-05-10T03:39:04;100258.75;;;10.43;55.72
36600;BME280;35385;55.668;37.508;2023-05-10T03:40:05;100202.66;;;10.19;55.85
36600;BME280;35385;55.668;37.508;2023-05-10T03:41:06;100262.34;;;10.55;55.23
36600;BME280;35385;55.668;37.508;2023-05-10T03:42:07;100258.38;;;10.60;55.31
36600;BME280;35385;55.668;37.508;2023-05-10T03:43:08;100169.31;;;10.12;56.28
36600;BME280;35385;55.668;37.508;2023-05-10T03:44:08;100236.59;;;10.54;57.25
36600;BME280;35385;55.668;37.508;2023-05-10T03:45:09;100251.22;;;10.61;57.73
36600;BME280;35385;55.668;37.508;2023-05-10T03:46:10;100247.91;;;10.57;56.03
36600;BME280;35385;55.668;37.508;2023-05-10T03:47:10;100240.97;;;10.55;56.15
36600;BME280;35385;55.668;37.508;2023-05-10T03:48:11;100243.16;;;10.50;55.89
36600;BME280;35385;55.668;37.508;2023-05-10T03:49:13;100221.94;;;10.36;56.25
36600;BME280;35385;55.668;37.508;2023-05-10T03:50:14;100251.66;;;10.55;57.00
36600;BME280;35385;55.668;37.508;2023-05-10T03:51:15;100249.25;;;10.52;56.67
36600;BME280;35385;55.668;37.508;2023-05-10T03:52:15;100246.03;;;10.47;57.36
36600;BME280;35385;55.668;37.508;2023-05-10T03:53:16;100248.72;;;10.47;59.08
36600;BME280;35385;55.668;37.508;2023-05-10T03:54:16;100249.66;;;10.46;56.75
36600;BME280;35385;55.668;37.508;2023-05-10T03:55:17;100244.56;;;10.43;58.27
36600;BME280;35385;55.668;37.508;2023-05-10T03:56:18;100252.97;;;10.49;58.84
36600;BME280;35385;55.668;37.508;2023-05-10T03:57:18;100245.47;;;10.54;59.85
36600;BME280;35385;55.668;37.508;2023-05-10T03:58:19;100254.66;;;10.63;58.88
36600;BME280;35385;55.668;37.508;2023-05-10T03:59:20;100242.63;;;10.69;58.22
36600;BME280;35385;55.668;37.508;2023-05-10T04:00:20;100248.22;;;10.66;58.24
36600;BME280;35385;55.668;37.508;2023-05-10T04:01:21;100252.47;;;10.68;58.67
36600;BME280;35385;55.668;37.508;2023-05-10T04:02:21;100209.41;;;10.49;59.36
36600;BME280;35385;55.668;37.508;2023-05-10T04:03:22;100249.69;;;10.70;59.98
36600;BME280;35385;55.668;37.508;2023-05-10T04:04:23;100244.81;;;10.63;60.45
36600;BME280;35385;55.668;37.508;2023-05-10T04:05:24;100248.59;;;10.72;59.74
36600;BME280;35385;55.668;37.508;2023-05-10T04:06:27;100237.91;;;10.72;59.04
36600;BME280;35385;55.668;37.508;2023-05-10T04:07:28;100241.34;;;10.74;58.96
36600;BME280;35385;55.668;37.508;2023-05-10T04:08:29;100195.41;;;10.45;59.65
36600;BME280;35385;55.668;37.508;2023-05-10T04:09:30;100235.72;;;10.66;61.42
36600;BME280;35385;55.668;37.508;2023-05-10T04:10:31;100241.78;;;10.68;61.88
36600;BME280;35385;55.668;37.508;2023-05-10T04:11:32;100232.41;;;10.62;61.49
36600;BME280;35385;55.668;37.508;2023-05-10T04:12:35;100226.44;;;10.59;61.88
36600;BME280;35385;55.668;37.508;2023-05-10T04:13:36;100245.44;;;10.67;61.94
36600;BME280;35385;55.668;37.508;2023-05-10T04:14:37;100238.78;;;10.73;60.89
36600;BME280;35385;55.668;37.508;2023-05-10T04:15:37;100228.56;;;10.67;58.36
36600;BME280;35385;55.668;37.508;2023-05-10T04:16:38;100235.78;;;10.77;57.50
36600;BME280;35385;55.668;37.508;2023-05-10T04:17:38;100191.56;;;10.49;57.46
36600;BME280;35385;55.668;37.508;2023-05-10T04:18:39;100231.06;;;10.81;58.51
36600;BME280;35385;55.668;37.508;2023-05-10T04:19:40;100235.72;;;10.90;59.57
36600;BME280;35385;55.668;37.508;2023-05-10T04:20:40;100245.75;;;10.86;59.13
36600;BME280;35385;55.668;37.508;2023-05-10T04:21:41;100228.66;;;10.89;58.87
36600;BME280;35385;55.668;37.508;2023-05-10T04:22:42;100235.97;;;10.98;59.73
36600;BME280;35385;55.668;37.508;2023-05-10T04:23:42;100235.84;;;10.99;59.06
36600;BME280;35385;55.668;37.508;2023-05-10T04:24:43;100234.75;;;10.91;59.87
36600;BME280;35385;55.668;37.508;2023-05-10T04:25:44;100230.47;;;10.88;59.94
36600;BME280;35385;55.668;37.508;2023-05-10T04:26:44;100242.03;;;10.89;57.40
36600;BME280;35385;55.668;37.508;2023-05-10T04:27:45;100239.00;;;10.93;58.64
36600;BME280;35385;55.668;37.508;2023-05-10T04:28:46;100234.63;;;10.92;58.09
36600;BME280;35385;55.668;37.508;2023-05-10T04:29:46;100231.59;;;10.97;57.47
36600;BME280;35385;55.668;37.508;2023-05-10T04:30:47;100225.91;;;11.02;56.30
36600;BME280;35385;55.668;37.508;2023-05-10T04:31:48;100233.94;;;11.02;57.56
36600;BME280;35385;55.668;37.508;2023-05-10T04:32:49;100227.50;;;11.04;56.45
36600;BME280;35385;55.668;37.508;2023-05-10T04:33:49;100201.69;;;10.92;54.65
36600;BME280;35385;55.668;37.508;2023-05-10T04:34:50;100220.22;;;11.06;55.27
36600;BME280;35385;55.668;37.508;2023-05-10T04:35:53;100228.38;;;11.16;55.00
36600;BME280;35385;55.668;37.508;2023-05-10T04:36:54;100236.53;;;11.14;54.86
36600;BME280;35385;55.668;37.508;2023-05-10T04:37:54;100232.00;;;11.04;54.52
36600;BME280;35385;55.668;37.508;2023-05-10T04:38:55;100228.25;;;11.06;53.76
36600;BME280;35385;55.668;37.508;2023-05-10T04:39:56;100231.06;;;11.16;54.18
36600;BME280;35385;55.668;37.508;2023-05-10T04:41:10;100232.34;;;11.34;55.14
36600;BME280;35385;55.668;37.508;2023-05-10T04:42:11;100234.03;;;11.35;55.37
36600;BME280;35385;55.668;37.508;2023-05-10T04:43:12;100187.31;;;11.17;53.56
36600;BME280;35385;55.668;37.508;2023-05-10T04:44:12;100227.50;;;11.39;51.99
36600;BME280;35385;55.668;37.508;2023-05-10T04:45:13;100233.34;;;11.55;52.06
36600;BME280;35385;55.668;37.508;2023-05-10T04:46:16;100230.19;;;11.39;52.19
36600;BME280;35385;55.668;37.508;2023-05-10T04:47:17;100236.63;;;11.48;53.03
36600;BME280;35385;55.668;37.508;2023-05-10T04:48:17;100233.84;;;11.60;53.15
36600;BME280;35385;55.668;37.508;2023-05-10T04:49:18;100233.53;;;11.76;52.62
36600;BME280;35385;55.668;37.508;2023-05-10T04:50:18;100229.53;;;11.93;52.47
36600;BME280;35385;55.668;37.508;2023-05-10T04:51:19;100233.91;;;11.94;51.72
36600;BME280;35385;55.668;37.508;2023-05-10T04:52:20;100212.50;;;11.94;52.04
36600;BME280;35385;55.668;37.508;2023-05-10T04:53:21;100232.56;;;11.99;50.96
36600;BME280;35385;55.668;37.508;2023-05-10T04:54:21;100229.66;;;12.02;51.11
36600;BME280;35385;55.668;37.508;2023-05-10T04:55:22;100225.88;;;11.83;49.85
36600;BME280;35385;55.668;37.508;2023-05-10T04:56:23;100214.38;;;11.69;50.00
36600;BME280;35385;55.668;37.508;2023-05-10T04:57:23;100224.84;;;11.73;50.15
36600;BME280;35385;55.668;37.508;2023-05-10T04:58:24;100224.53;;;11.88;50.23
36600;BME280;35385;55.668;37.508;2023-05-10T04:59:25;100228.44;;;12.07;50.17
36600;BME280;35385;55.668;37.508;2023-05-10T05:00:26;100225.75;;;12.18;49.73
36600;BME280;35385;55.668;37.508;2023-05-10T05:01:26;100194.25;;;12.10;49.60
36600;BME280;35385;55.668;37.508;2023-05-10T05:02:27;100215.97;;;12.50;49.73
36600;BME280;35385;55.668;37.508;2023-05-10T05:03:27;100224.31;;;12.68;50.05
36600;BME280;35385;55.668;37.508;2023-05-10T05:04:29;100229.69;;;12.68;49.51
36600;BME280;35385;55.668;37.508;2023-05-10T05:05:30;100183.94;;;12.49;49.33
36600;BME280;35385;55.668;37.508;2023-05-10T05:06:30;100209.34;;;12.65;49.06
36600;BME280;35385;55.668;37.508;2023-05-10T05:07:31;100226.84;;;12.81;48.92
36600;BME280;35385;55.668;37.508;2023-05-10T05:08:31;100227.22;;;12.76;49.56
36600;BME280;35385;55.668;37.508;2023-05-10T05:09:32;100212.63;;;12.69;49.01
36600;BME280;35385;55.668;37.508;2023-05-10T05:10:32;100226.72;;;12.82;48.25
36600;BME280;35385;55.668;37.508;2023-05-10T05:11:33;100190.81;;;12.62;48.01
36600;BME280;35385;55.668;37.508;2023-05-10T05:12:34;100228.66;;;12.80;48.91
36600;BME280;35385;55.668;37.508;2023-05-10T05:13:35;100226.22;;;12.77;49.40
36600;BME280;35385;55.668;37.508;2023-05-10T05:14:36;100214.66;;;12.77;47.98
36600;BME280;35385;55.668;37.508;2023-05-10T05:15:36;100173.16;;;12.60;47.24
36600;BME280;35385;55.668;37.508;2023-05-10T05:16:37;100229.34;;;12.93;47.70
36600;BME280;35385;55.668;37.508;2023-05-10T05:17:37;100218.88;;;12.90;48.02
36600;BME280;35385;55.668;37.508;2023-05-10T05:18:38;100171.66;;;12.78;47.49
36600;BME280;35385;55.668;37.508;2023-05-10T05:19:39;100204.91;;;13.07;46.98
36600;BME280;35385;55.668;37.508;2023-05-10T05:20:39;100222.81;;;13.18;46.79
36600;BME280;35385;55.668;37.508;2023-05-10T05:21:40;100219.00;;;13.21;47.07
36600;BME280;35385;55.668;37.508;2023-05-10T05:22:41;100218.88;;;13.22;48.20
36600;BME280;35385;55.668;37.508;2023-05-10T05:23:42;100218.16;;;13.20;46.88
36600;BME280;35385;55.668;37.508;2023-05-10T05:24:43;100134.19;;;12.56;47.14
36600;BME280;35385;55.668;37.508;2023-05-10T05:25:43;100220.72;;;13.22;47.47
36600;BME280;35385;55.668;37.508;2023-05-10T05:26:44;100167.34;;;13.07;46.61
36600;BME280;35385;55.668;37.508;2023-05-10T05:27:44;100211.66;;;13.43;46.17
36600;BME280;35385;55.668;37.508;2023-05-10T05:28:45;100208.94;;;13.55;46.74
36600;BME280;35385;55.668;37.508;2023-05-10T05:29:45;100204.97;;;13.59;46.18
36600;BME280;35385;55.668;37.508;2023-05-10T05:30:46;100198.50;;;13.61;45.90
36600;BME280;35385;55.668;37.508;2023-05-10T05:31:47;100204.50;;;13.74;46.43
36600;BME280;35385;55.668;37.508;2023-05-10T05:32:47;100205.25;;;13.86;46.26
36600;BME280;35385;55.668;37.508;2023-05-10T05:33:48;100209.75;;;14.06;45.68
36600;BME280;35385;55.668;37.508;2023-05-10T05:34:48;100210.13;;;14.02;44.71
36600;BME280;35385;55.668;37.508;2023-05-10T05:35:49;100196.41;;;13.95;44.68
36600;BME280;35385;55.668;37.508;2023-05-10T05:36:51;100206.94;;;14.08;44.15
36600;BME280;35385;55.668;37.508;2023-05-10T05:37:51;100205.56;;;13.62;43.89
36600;BME280;35385;55.668;37.508;2023-05-10T05:38:52;100203.16;;;13.59;43.71
36600;BME280;35385;55.668;37.508;2023-05-10T05:39:52;100202.63;;;13.65;43.60
36600;BME280;35385;55.668;37.508;2023-05-10T05:40:54;100177.28;;;13.58;43.92
36600;BME280;35385;55.668;37.508;2023-05-10T05:41:55;100199.38;;;13.92;44.21
36600;BME280;35385;55.668;37.508;2023-05-10T05:42:56;100206.22;;;14.06;43.71